Time,TemperatureF,DewpointF,PressureIn,WindDirection,WindDirectionDegrees,WindSpeedMPH,WindSpeedGustMPH,Humidity,HourlyPrecipIn,Conditions,Clouds,dailyrainin,SoftwareType,DateUTC
2013-12-05 00:00:00,63.7,50.3,24.66,ESE,119,6.7,6.7,46,0.00,,---,0.00,VWS V14.01,2013-12-05 06:00:00,
2013-12-05 00:05:00,63.7,50.3,24.66,ESE,122,4.0,5.4,46,0.00,,---,0.00,VWS V14.01,2013-12-05 06:05:00,
2013-12-05 00:10:00,63.5,50.3,24.66,SE,129,3.6,4.0,45,0.00,,---,0.00,VWS V14.01,2013-12-05 06:10:00,
2013-12-05 00:15:00,63.5,50.3,24.66,SSW,209,2.2,3.6,45,0.00,,---,0.00,VWS V14.01,2013-12-05 06:15:00,
2013-12-05 00:20:00,63.5,50.3,24.66,East,89,3.6,3.6,45,0.00,,---,0.00,VWS V14.01,2013-12-05 06:20:00,
2013-12-05 00:25:00,63.5,50.3,24.66,ESE,106,3.6,4.9,45,0.00,,---,0.00,VWS V14.01,2013-12-05 06:25:00,
2013-12-05 00:30:00,63.7,50.3,24.66,SSE,158,6.3,6.3,45,0.00,,---,0.00,VWS V14.01,2013-12-05 06:30:00,
2013-12-05 00:35:00,64.0,50.3,24.66,South,172,3.1,3.1,41,0.00,,---,0.00,VWS V14.01,2013-12-05 06:35:00,
2013-12-05 00:40:00,64.0,50.3,24.66,SSW,199,2.7,2.7,41,0.00,,---,0.00,VWS V14.01,2013-12-05 06:40:00,
2013-12-05 00:45:00,63.9,50.3,24.66,East,89,10.1,10.1,38,0.00,,---,0.00,VWS V14.01,2013-12-05 06:45:00,
2013-12-05 00:50:00,64.0,50.3,24.66,SE,138,4.9,4.9,38,0.00,,---,0.00,VWS V14.01,2013-12-05 06:50:00,
2013-12-05 00:55:00,64.2,50.3,24.66,WSW,254,2.7,4.9,37,0.00,,---,0.00,VWS V14.01,2013-12-05 06:55:00,
2013-12-05 01:01:00,63.9,50.3,24.66,SE,135,4.0,4.0,38,0.00,,---,0.00,VWS V14.01,2013-12-05 07:01:00,
2013-12-05 01:06:00,63.7,50.3,24.66,ESE,119,2.7,2.7,40,0.00,,---,0.00,VWS V14.01,2013-12-05 07:06:00,
2013-12-05 01:11:00,63.5,50.3,24.66,WSW,249,2.7,2.7,40,0.00,,---,0.00,VWS V14.01,2013-12-05 07:11:00,
2013-12-05 01:16:00,63.5,50.3,24.63,NNE,15,2.7,2.7,41,0.00,,---,0.00,VWS V14.01,2013-12-05 07:16:00,
2013-12-05 01:21:00,63.1,50.3,24.63,SSE,167,3.6,5.8,42,0.00,,---,0.00,VWS V14.01,2013-12-05 07:21:00,
2013-12-05 01:26:00,63.1,50.3,24.63,ESE,110,3.1,3.1,44,0.00,,---,0.00,VWS V14.01,2013-12-05 07:26:00,
2013-12-05 01:31:00,63.5,50.3,24.63,South,172,4.5,4.5,43,0.00,,---,0.00,VWS V14.01,2013-12-05 07:31:00,
2013-12-05 01:36:00,63.5,50.3,24.63,East,84,4.9,5.8,43,0.00,,---,0.00,VWS V14.01,2013-12-05 07:36:00,
2013-12-05 01:41:00,64.0,50.3,24.63,East,83,2.7,7.6,42,0.00,,---,0.00,VWS V14.01,2013-12-05 07:41:00,
2013-12-05 01:46:00,63.9,50.3,24.63,SE,126,5.4,5.4,41,0.00,,---,0.00,VWS V14.01,2013-12-05 07:46:00,
2013-12-05 01:51:00,63.9,50.3,24.63,SE,128,0.0,0.0,41,0.00,,---,0.00,VWS V14.01,2013-12-05 07:51:00,
2013-12-05 01:56:00,63.7,50.3,24.63,NE,46,4.0,4.0,42,0.00,,---,0.00,VWS V14.01,2013-12-05 07:56:00,
2013-12-05 02:01:00,63.7,50.3,24.63,East,87,4.0,4.0,43,0.00,,---,0.00,VWS V14.01,2013-12-05 08:01:00,
2013-12-05 02:06:00,63.7,50.3,24.63,ESE,111,3.1,3.1,43,0.00,,---,0.00,VWS V14.01,2013-12-05 08:06:00,
2013-12-05 02:12:00,62.6,50.3,24.63,ESE,118,6.3,6.3,45,0.00,,---,0.00,VWS V14.01,2013-12-05 08:12:00,
2013-12-05 02:17:00,62.8,50.3,24.63,SE,130,3.6,3.6,44,0.00,,---,0.00,VWS V14.01,2013-12-05 08:17:00,
2013-12-05 02:22:00,63.0,50.3,24.63,NW,304,2.2,2.7,45,0.00,,---,0.00,VWS V14.01,2013-12-05 08:22:00,
2013-12-05 02:27:00,63.1,50.3,24.63,SE,126,4.0,4.0,44,0.00,,---,0.00,VWS V14.01,2013-12-05 08:27:00,
2013-12-05 02:32:00,63.1,50.3,24.63,SSE,165,2.7,2.7,44,0.00,,---,0.00,VWS V14.01,2013-12-05 08:32:00,
2013-12-05 02:37:00,63.1,50.3,24.63,East,88,4.0,4.0,43,0.00,,---,0.00,VWS V14.01,2013-12-05 08:37:00,
2013-12-05 02:42:00,63.1,50.3,24.63,SSE,151,4.9,4.9,44,0.00,,---,0.00,VWS V14.01,2013-12-05 08:42:00,
2013-12-05 02:47:00,63.0,50.3,24.63,SSE,153,3.6,4.9,43,0.00,,---,0.00,VWS V14.01,2013-12-05 08:47:00,
2013-12-05 02:52:00,63.0,50.3,24.63,SSE,147,3.1,5.4,41,0.00,,---,0.00,VWS V14.01,2013-12-05 08:52:00,
2013-12-05 02:57:00,62.8,50.3,24.63,SSE,167,2.7,3.1,41,0.00,,---,0.00,VWS V14.01,2013-12-05 08:57:00,
2013-12-05 03:02:00,63.0,50.3,24.63,SE,139,4.0,4.0,41,0.00,,---,0.00,VWS V14.01,2013-12-05 09:02:00,
2013-12-05 03:07:00,63.1,50.3,24.63,SSE,151,5.4,5.4,42,0.00,,---,0.00,VWS V14.01,2013-12-05 09:07:00,
2013-12-05 03:12:00,63.1,50.3,24.63,ESE,117,4.0,4.0,41,0.00,,---,0.00,VWS V14.01,2013-12-05 09:12:00,
2013-12-05 03:18:00,63.1,50.3,24.63,WSW,245,5.4,5.4,42,0.00,,---,0.00,VWS V14.01,2013-12-05 09:18:00,
2013-12-05 03:23:00,63.0,50.3,24.63,SE,131,3.6,8.3,44,0.00,,---,0.00,VWS V14.01,2013-12-05 09:23:00,
2013-12-05 03:28:00,62.4,50.3,24.63,ESE,103,5.4,5.4,46,0.00,,---,0.00,VWS V14.01,2013-12-05 09:28:00,
2013-12-05 03:33:00,61.9,50.3,24.63,ESE,108,2.7,2.7,46,0.00,,---,0.00,VWS V14.01,2013-12-05 09:33:00,
2013-12-05 03:38:00,61.7,50.3,24.63,SSE,149,3.1,4.0,47,0.00,,---,0.00,VWS V14.01,2013-12-05 09:38:00,
2013-12-05 03:43:00,61.3,50.3,24.63,East,97,5.8,5.8,48,0.00,,---,0.00,VWS V14.01,2013-12-05 09:43:00,
2013-12-05 03:48:00,61.5,50.3,24.63,SSE,157,2.7,2.7,48,0.00,,---,0.00,VWS V14.01,2013-12-05 09:48:00,
2013-12-05 03:53:00,61.3,50.3,24.63,SSW,192,3.6,3.6,48,0.00,,---,0.00,VWS V14.01,2013-12-05 09:53:00,
2013-12-05 03:58:00,61.7,50.3,24.63,East,91,0.0,0.0,47,0.00,,---,0.00,VWS V14.01,2013-12-05 09:58:00,
2013-12-05 04:03:00,61.7,50.3,24.63,SSE,166,8.7,8.7,47,0.00,,---,0.00,VWS V14.01,2013-12-05 10:03:00,
2013-12-05 04:08:00,62.4,50.3,24.63,East,90,2.7,2.7,44,0.00,,---,0.00,VWS V14.01,2013-12-05 10:08:00,
2013-12-05 04:13:00,62.8,50.3,24.63,ESE,107,4.0,4.0,43,0.00,,---,0.00,VWS V14.01,2013-12-05 10:13:00,
2013-12-05 04:18:00,62.4,50.3,24.63,SSE,151,6.7,6.7,44,0.00,,---,0.00,VWS V14.01,2013-12-05 10:18:00,
2013-12-05 04:24:00,62.1,50.3,24.63,East,92,3.6,4.9,45,0.00,,---,0.00,VWS V14.01,2013-12-05 10:24:00,
2013-12-05 04:29:00,61.7,50.3,24.63,East,82,3.6,4.0,45,0.00,,---,0.00,VWS V14.01,2013-12-05 10:29:00,
2013-12-05 04:34:00,61.5,50.3,24.63,ESE,102,2.7,2.7,46,0.00,,---,0.00,VWS V14.01,2013-12-05 10:34:00,
2013-12-05 04:39:00,61.7,50.3,24.63,ENE,73,5.4,5.4,43,0.00,,---,0.00,VWS V14.01,2013-12-05 10:39:00,
2013-12-05 04:44:00,61.7,50.3,24.63,East,91,5.8,5.8,42,0.00,,---,0.00,VWS V14.01,2013-12-05 10:44:00,
2013-12-05 04:49:00,62.1,50.3,24.63,ESE,107,5.4,5.4,43,0.00,,---,0.00,VWS V14.01,2013-12-05 10:49:00,
2013-12-05 04:54:00,62.2,50.3,24.63,SE,124,4.0,4.0,44,0.00,,---,0.00,VWS V14.01,2013-12-05 10:54:00,
2013-12-05 04:59:00,62.1,50.3,24.66,SE,126,3.6,3.6,44,0.00,,---,0.00,VWS V14.01,2013-12-05 10:59:00,
2013-12-05 05:04:00,61.9,50.3,24.66,ESE,118,2.7,2.7,43,0.00,,---,0.00,VWS V14.01,2013-12-05 11:04:00,
2013-12-05 05:09:00,61.7,50.3,24.66,NE,50,3.1,3.1,44,0.00,,---,0.00,VWS V14.01,2013-12-05 11:09:00,
2013-12-05 05:14:00,61.7,50.3,24.66,SE,143,6.3,6.3,44,0.00,,---,0.00,VWS V14.01,2013-12-05 11:14:00,
2013-12-05 05:19:00,61.5,50.3,24.66,ESE,117,3.6,4.0,41,0.00,,---,0.00,VWS V14.01,2013-12-05 11:19:00,
2013-12-05 05:24:00,61.5,50.3,24.66,SE,133,3.6,3.6,41,0.00,,---,0.00,VWS V14.01,2013-12-05 11:24:00,
2013-12-05 05:29:00,61.5,50.3,24.66,East,91,5.8,5.8,40,0.00,,---,0.00,VWS V14.01,2013-12-05 11:29:00,
2013-12-05 05:35:00,61.7,50.3,24.66,SE,137,2.2,3.1,39,0.00,,---,0.00,VWS V14.01,2013-12-05 11:35:00,
2013-12-05 05:40:00,62.1,50.3,24.66,East,96,3.1,5.8,38,0.00,,---,0.00,VWS V14.01,2013-12-05 11:40:00,
2013-12-05 05:45:00,62.4,50.3,24.66,SE,131,2.7,2.7,38,0.00,,---,0.00,VWS V14.01,2013-12-05 11:45:00,
2013-12-05 05:50:00,62.1,50.3,24.66,East,90,3.1,3.1,39,0.00,,---,0.00,VWS V14.01,2013-12-05 11:50:00,
2013-12-05 05:55:00,61.9,50.3,24.66,SSE,164,3.1,10.5,40,0.00,,---,0.00,VWS V14.01,2013-12-05 11:55:00,
2013-12-05 06:00:00,62.2,50.3,24.66,North,3,2.2,2.2,40,0.00,,---,0.00,VWS V14.01,2013-12-05 12:00:00,
2013-12-05 06:05:00,61.9,50.3,24.66,SSE,167,3.1,3.1,39,0.00,,---,0.00,VWS V14.01,2013-12-05 12:05:00,
2013-12-05 06:10:00,62.4,50.3,24.66,ESE,116,3.6,6.3,38,0.00,,---,0.00,VWS V14.01,2013-12-05 12:10:00,
2013-12-05 06:15:00,62.6,50.3,24.66,SE,146,2.7,4.0,38,0.00,,---,0.00,VWS V14.01,2013-12-05 12:15:00,
2013-12-05 06:20:00,62.6,50.3,24.66,SE,140,5.4,5.4,37,0.00,,---,0.00,VWS V14.01,2013-12-05 12:20:00,
2013-12-05 06:25:00,63.0,50.3,24.66,SE,132,0.0,2.7,37,0.00,,---,0.00,VWS V14.01,2013-12-05 12:25:00,
2013-12-05 06:30:00,63.1,50.3,24.66,East,79,3.6,3.6,38,0.00,,---,0.00,VWS V14.01,2013-12-05 12:30:00,
2013-12-05 06:35:00,63.9,50.3,24.69,East,84,2.2,4.0,40,0.00,,---,0.00,VWS V14.01,2013-12-05 12:35:00,
2013-12-05 06:40:00,64.2,50.3,24.69,ESE,103,2.2,3.1,41,0.00,,---,0.00,VWS V14.01,2013-12-05 12:40:00,
2013-12-05 06:46:00,64.4,50.3,24.69,East,90,4.0,4.0,42,0.00,,---,0.00,VWS V14.01,2013-12-05 12:46:00,
2013-12-05 06:51:00,64.8,50.3,24.69,East,88,7.6,7.6,41,0.00,,---,0.00,VWS V14.01,2013-12-05 12:51:00,
2013-12-05 06:56:00,65.3,50.3,24.69,NE,37,6.3,6.3,39,0.00,,---,0.00,VWS V14.01,2013-12-05 12:56:00,
2013-12-05 07:01:00,65.5,50.3,24.69,ESE,122,5.4,5.4,41,0.00,,---,0.00,VWS V14.01,2013-12-05 13:01:00,
2013-12-05 07:06:00,65.5,50.3,24.69,ENE,62,8.1,8.1,42,0.00,,---,0.00,VWS V14.01,2013-12-05 13:06:00,
2013-12-05 07:11:00,65.5,50.3,24.69,East,98,9.6,9.6,42,0.00,,---,0.00,VWS V14.01,2013-12-05 13:11:00,
2013-12-05 07:16:00,65.7,50.3,24.69,East,79,4.9,8.1,43,0.00,,---,0.00,VWS V14.01,2013-12-05 13:16:00,
2013-12-05 07:21:00,65.7,50.3,24.69,SE,133,2.7,2.7,43,0.00,,---,0.00,VWS V14.01,2013-12-05 13:21:00,
2013-12-05 07:26:00,66.9,50.3,24.69,SSE,152,4.0,4.0,37,0.00,,---,0.00,VWS V14.01,2013-12-05 13:26:00,
2013-12-05 07:31:00,67.8,50.3,24.69,NNE,17,2.7,2.7,37,0.00,,---,0.00,VWS V14.01,2013-12-05 13:31:00,
2013-12-05 07:36:00,68.2,50.3,24.69,NE,46,4.0,9.6,36,0.00,,---,0.00,VWS V14.01,2013-12-05 13:36:00,
2013-12-05 07:41:00,68.4,50.3,24.69,East,98,7.2,7.2,38,0.00,,---,0.00,VWS V14.01,2013-12-05 13:41:00,
2013-12-05 07:46:00,68.5,50.3,24.69,ENE,77,2.7,2.7,38,0.00,,---,0.00,VWS V14.01,2013-12-05 13:46:00,
2013-12-05 07:52:00,68.9,50.3,24.69,East,87,3.6,3.6,37,0.00,,---,0.00,VWS V14.01,2013-12-05 13:52:00,
2013-12-05 07:57:00,69.4,50.3,24.69,ESE,105,3.6,3.6,37,0.00,,---,0.00,VWS V14.01,2013-12-05 13:57:00,
2013-12-05 08:02:00,69.4,50.3,24.69,NE,42,3.1,3.1,38,0.00,,---,0.00,VWS V14.01,2013-12-05 14:02:00,
2013-12-05 08:07:00,69.4,50.3,24.69,ENE,69,2.7,2.7,38,0.00,,---,0.00,VWS V14.01,2013-12-05 14:07:00,
2013-12-05 08:12:00,69.8,50.3,24.69,NNE,18,2.7,5.8,35,0.00,,---,0.00,VWS V14.01,2013-12-05 14:12:00,
2013-12-05 08:17:00,70.0,50.3,24.69,SSE,163,2.7,2.7,38,0.00,,---,0.00,VWS V14.01,2013-12-05 14:17:00,
2013-12-05 08:22:00,70.7,50.3,24.69,East,89,5.8,5.8,38,0.00,,---,0.00,VWS V14.01,2013-12-05 14:22:00,
2013-12-05 08:27:00,70.7,50.3,24.69,SE,125,3.6,3.6,38,0.00,,---,0.00,VWS V14.01,2013-12-05 14:27:00,
2013-12-05 08:32:00,71.1,50.3,24.69,East,86,3.6,3.6,37,0.00,,---,0.00,VWS V14.01,2013-12-05 14:32:00,
2013-12-05 08:37:00,71.1,50.3,24.69,ESE,107,5.4,5.4,37,0.00,,---,0.00,VWS V14.01,2013-12-05 14:37:00,
2013-12-05 08:42:00,70.9,50.3,24.69,SE,135,3.1,3.1,36,0.00,,---,0.00,VWS V14.01,2013-12-05 14:42:00,
2013-12-05 08:47:00,71.1,50.3,24.69,ESE,117,5.4,5.4,38,0.00,,---,0.00,VWS V14.01,2013-12-05 14:47:00,
2013-12-05 08:52:00,71.6,50.3,24.69,NE,44,5.4,5.4,37,0.00,,---,0.00,VWS V14.01,2013-12-05 14:52:00,
2013-12-05 08:58:00,71.6,50.3,24.69,ENE,74,8.1,8.1,36,0.00,,---,0.00,VWS V14.01,2013-12-05 14:58:00,
2013-12-05 09:03:00,72.0,50.3,24.69,East,88,3.1,6.3,37,0.00,,---,0.00,VWS V14.01,2013-12-05 15:03:00,
2013-12-05 09:08:00,72.1,50.3,24.69,SE,141,4.9,6.3,37,0.00,,---,0.00,VWS V14.01,2013-12-05 15:08:00,
2013-12-05 09:13:00,72.1,50.3,24.69,NNE,33,3.6,5.8,37,0.00,,---,0.00,VWS V14.01,2013-12-05 15:13:00,
2013-12-05 09:18:00,71.8,50.3,24.69,ENE,62,4.0,6.3,39,0.00,,---,0.00,VWS V14.01,2013-12-05 15:18:00,
2013-12-05 09:23:00,72.0,50.3,24.69,ENE,67,3.1,3.1,38,0.00,,---,0.00,VWS V14.01,2013-12-05 15:23:00,
2013-12-05 09:28:00,71.8,50.3,24.69,East,88,5.4,6.3,38,0.00,,---,0.00,VWS V14.01,2013-12-05 15:28:00,
2013-12-05 09:33:00,71.8,50.3,24.69,East,87,2.2,2.2,37,0.00,,---,0.00,VWS V14.01,2013-12-05 15:33:00,
2013-12-05 09:38:00,71.8,50.3,24.69,SE,139,5.4,5.4,37,0.00,,---,0.00,VWS V14.01,2013-12-05 15:38:00,
2013-12-05 09:43:00,72.5,50.3,24.69,East,82,4.0,4.0,41,0.00,,---,0.00,VWS V14.01,2013-12-05 15:43:00,
2013-12-05 09:48:00,73.4,50.3,24.69,East,101,5.8,5.8,36,0.00,,---,0.00,VWS V14.01,2013-12-05 15:48:00,
2013-12-05 09:53:00,73.4,50.3,24.69,East,85,5.4,5.4,38,0.00,,---,0.00,VWS V14.01,2013-12-05 15:53:00,
2013-12-05 09:58:00,73.2,50.3,24.69,SE,131,4.9,5.8,37,0.00,,---,0.00,VWS V14.01,2013-12-05 15:58:00,
2013-12-05 10:04:00,73.2,50.3,24.69,East,101,2.7,2.7,37,0.00,,---,0.00,VWS V14.01,2013-12-05 16:04:00,
2013-12-05 10:09:00,73.4,50.3,24.69,East,93,3.6,3.6,37,0.00,,---,0.00,VWS V14.01,2013-12-05 16:09:00,
2013-12-05 10:14:00,73.4,50.3,24.69,ESE,103,3.6,3.6,38,0.00,,---,0.00,VWS V14.01,2013-12-05 16:14:00,
2013-12-05 10:19:00,73.4,50.3,24.69,East,101,4.9,4.9,39,0.00,,---,0.00,VWS V14.01,2013-12-05 16:19:00,
2013-12-05 10:24:00,73.0,50.3,24.69,NE,46,2.7,5.4,41,0.00,,---,0.00,VWS V14.01,2013-12-05 16:24:00,
2013-12-05 10:29:00,73.2,50.3,24.69,East,91,2.7,3.1,42,0.00,,---,0.00,VWS V14.01,2013-12-05 16:29:00,
2013-12-05 10:34:00,73.8,50.3,24.69,NE,40,3.1,3.1,41,0.00,,---,0.00,VWS V14.01,2013-12-05 16:34:00,
2013-12-05 10:39:00,73.9,50.3,24.69,ESE,112,3.1,3.1,41,0.00,,---,0.00,VWS V14.01,2013-12-05 16:39:00,
2013-12-05 10:44:00,73.9,50.3,24.69,NNE,28,6.3,6.3,40,0.00,,---,0.00,VWS V14.01,2013-12-05 16:44:00,
2013-12-05 10:49:00,73.2,50.3,24.69,SSE,148,2.7,5.8,41,0.00,,---,0.00,VWS V14.01,2013-12-05 16:49:00,
2013-12-05 10:54:00,73.4,50.3,24.69,ESE,123,8.1,8.1,41,0.00,,---,0.00,VWS V14.01,2013-12-05 16:54:00,
2013-12-05 10:59:00,73.2,50.3,24.69,ENE,73,3.6,4.0,41,0.00,,---,0.00,VWS V14.01,2013-12-05 16:59:00,
2013-12-05 11:04:00,73.0,50.3,24.69,NNE,18,3.6,3.6,41,0.00,,---,0.00,VWS V14.01,2013-12-05 17:04:00,
2013-12-05 11:10:00,73.0,50.3,24.69,NE,44,5.8,5.8,41,0.00,,---,0.00,VWS V14.01,2013-12-05 17:10:00,
2013-12-05 11:15:00,73.4,50.3,24.69,SE,129,4.9,4.9,41,0.00,,---,0.00,VWS V14.01,2013-12-05 17:15:00,
2013-12-05 11:20:00,73.4,50.3,24.66,East,94,4.0,4.0,41,0.00,,---,0.00,VWS V14.01,2013-12-05 17:20:00,
2013-12-05 11:25:00,73.9,50.3,24.66,SSE,163,3.1,4.0,42,0.00,,---,0.00,VWS V14.01,2013-12-05 17:25:00,
2013-12-05 11:30:00,74.3,50.3,24.66,East,99,5.4,5.4,41,0.00,,---,0.00,VWS V14.01,2013-12-05 17:30:00,
2013-12-05 11:35:00,74.5,50.3,24.66,East,83,2.7,2.7,39,0.00,,---,0.00,VWS V14.01,2013-12-05 17:35:00,
2013-12-05 11:40:00,74.5,50.2,24.66,NNE,19,5.4,5.8,40,0.00,,---,0.00,VWS V14.01,2013-12-05 17:40:00,
2013-12-05 11:45:00,73.9,50.2,24.66,SE,130,0.0,4.0,41,0.00,,---,0.00,VWS V14.01,2013-12-05 17:45:00,
2013-12-05 11:50:00,73.2,50.2,24.66,ENE,73,2.7,2.7,43,0.00,,---,0.00,VWS V14.01,2013-12-05 17:50:00,
2013-12-05 11:55:00,73.6,50.2,24.66,NNE,27,2.7,3.1,41,0.00,,---,0.00,VWS V14.01,2013-12-05 17:55:00,
2013-12-05 12:00:00,73.0,50.2,24.66,ENE,78,2.2,3.1,41,0.00,,---,0.00,VWS V14.01,2013-12-05 18:00:00,
2013-12-05 12:05:00,72.3,50.2,24.66,East,98,3.1,3.1,43,0.00,,---,0.00,VWS V14.01,2013-12-05 18:05:00,
2013-12-05 12:10:00,71.8,50.2,24.66,East,79,4.0,4.0,44,0.00,,---,0.00,VWS V14.01,2013-12-05 18:10:00,
2013-12-05 12:16:00,71.6,50.2,24.66,SE,142,2.7,2.7,43,0.00,,---,0.00,VWS V14.01,2013-12-05 18:16:00,
2013-12-05 12:21:00,71.2,50.2,24.63,ESE,112,3.1,3.1,45,0.00,,---,0.00,VWS V14.01,2013-12-05 18:21:00,
2013-12-05 12:26:00,71.1,50.2,24.63,NNE,28,2.7,2.7,44,0.00,,---,0.00,VWS V14.01,2013-12-05 18:26:00,
2013-12-05 12:31:00,71.2,50.2,24.63,East,87,2.7,2.7,47,0.00,,---,0.00,VWS V14.01,2013-12-05 18:31:00,
2013-12-05 12:36:00,70.9,50.2,24.63,SE,133,3.6,3.6,45,0.00,,---,0.00,VWS V14.01,2013-12-05 18:36:00,
2013-12-05 12:41:00,70.5,50.2,24.63,SE,144,3.1,3.6,47,0.00,,---,0.00,VWS V14.01,2013-12-05 18:41:00,
2013-12-05 12:46:00,70.5,50.2,24.63,North,3,2.7,2.7,46,0.00,,---,0.00,VWS V14.01,2013-12-05 18:46:00,
2013-12-05 12:51:00,70.5,50.2,24.63,SSE,168,2.7,3.1,47,0.00,,---,0.00,VWS V14.01,2013-12-05 18:51:00,
2013-12-05 12:56:00,70.2,50.2,24.63,NE,52,3.1,3.1,47,0.00,,---,0.00,VWS V14.01,2013-12-05 18:56:00,
2013-12-05 13:02:00,70.0,50.2,24.63,ENE,60,4.9,5.4,48,0.00,,---,0.00,VWS V14.01,2013-12-05 19:02:00,
2013-12-05 13:07:00,69.6,50.2,24.63,East,93,3.1,3.1,50,0.00,,---,0.00,VWS V14.01,2013-12-05 19:07:00,
2013-12-05 13:12:00,69.8,50.3,24.63,East,96,3.6,3.6,50,0.00,,---,0.00,VWS V14.01,2013-12-05 19:12:00,
2013-12-05 13:17:00,70.3,51.4,24.63,SE,129,2.7,3.1,51,0.00,,---,0.00,VWS V14.01,2013-12-05 19:17:00,
2013-12-05 13:22:00,70.7,50.1,24.63,ESE,120,3.1,4.0,48,0.00,,---,0.00,VWS V14.01,2013-12-05 19:22:00,
2013-12-05 13:27:00,70.9,50.2,24.63,ESE,103,3.1,3.1,48,0.00,,---,0.00,VWS V14.01,2013-12-05 19:27:00,
2013-12-05 13:32:00,71.4,50.2,24.63,East,95,4.9,4.9,47,0.00,,---,0.00,VWS V14.01,2013-12-05 19:32:00,
2013-12-05 13:37:00,71.8,50.2,24.63,SSE,148,3.6,3.6,46,0.00,,---,0.00,VWS V14.01,2013-12-05 19:37:00,
2013-12-05 13:42:00,72.0,50.1,24.63,ENE,74,2.7,2.7,46,0.00,,---,0.00,VWS V14.01,2013-12-05 19:42:00,
2013-12-05 13:47:00,72.1,50.1,24.63,ENE,59,3.6,3.6,44,0.00,,---,0.00,VWS V14.01,2013-12-05 19:47:00,
2013-12-05 13:52:00,71.8,50.1,24.60,NE,34,2.7,4.5,44,0.00,,---,0.00,VWS V14.01,2013-12-05 19:52:00,
2013-12-05 13:57:00,70.9,50.1,24.60,NE,39,3.1,3.1,46,0.00,,---,0.00,VWS V14.01,2013-12-05 19:57:00,
2013-12-05 14:02:00,70.0,50.1,24.60,NNE,28,2.7,2.7,48,0.00,,---,0.00,VWS V14.01,2013-12-05 20:02:00,
2013-12-05 14:08:00,69.4,50.0,24.60,ESE,120,4.0,4.0,50,0.00,,---,0.00,VWS V14.01,2013-12-05 20:08:00,
2013-12-05 14:13:00,69.6,50.7,24.60,SE,133,2.7,2.7,51,0.00,,---,0.00,VWS V14.01,2013-12-05 20:13:00,
2013-12-05 14:18:00,70.0,50.5,24.60,ESE,115,3.1,3.1,50,0.00,,---,0.00,VWS V14.01,2013-12-05 20:18:00,
2013-12-05 14:23:00,70.2,50.1,24.60,ESE,104,3.6,3.6,49,0.00,,---,0.00,VWS V14.01,2013-12-05 20:23:00,
2013-12-05 14:28:00,70.3,50.3,24.60,East,96,2.7,2.7,49,0.00,,---,0.00,VWS V14.01,2013-12-05 20:28:00,
2013-12-05 14:33:00,70.7,50.6,24.60,East,94,4.9,4.9,49,0.00,,---,0.00,VWS V14.01,2013-12-05 20:33:00,
2013-12-05 14:38:00,70.7,50.1,24.60,NNE,19,3.1,4.9,48,0.00,,---,0.00,VWS V14.01,2013-12-05 20:38:00,
2013-12-05 14:43:00,71.1,50.4,24.60,ENE,74,0.0,2.2,48,0.00,,---,0.00,VWS V14.01,2013-12-05 20:43:00,
2013-12-05 14:48:00,70.5,50.2,24.60,NNE,31,4.0,4.0,47,0.00,,---,0.00,VWS V14.01,2013-12-05 20:48:00,
2013-12-05 14:53:00,70.3,50.2,24.60,East,90,3.1,3.1,48,0.00,,---,0.00,VWS V14.01,2013-12-05 20:53:00,
2013-12-05 14:58:00,69.8,50.2,24.60,SE,145,3.6,3.6,48,0.00,,---,0.00,VWS V14.01,2013-12-05 20:58:00,
2013-12-05 15:03:00,69.1,50.7,24.60,ESE,106,2.2,2.2,52,0.00,,---,0.00,VWS V14.01,2013-12-05 21:03:00,
2013-12-05 15:08:00,68.9,50.6,24.60,ESE,104,2.7,2.7,52,0.00,,---,0.00,VWS V14.01,2013-12-05 21:08:00,
2013-12-05 15:13:00,68.7,50.9,24.60,NE,49,3.1,3.1,53,0.00,,---,0.00,VWS V14.01,2013-12-05 21:13:00,
2013-12-05 15:18:00,68.7,50.9,24.60,East,92,3.1,3.1,53,0.00,,---,0.00,VWS V14.01,2013-12-05 21:18:00,
2013-12-05 15:23:00,68.4,50.6,24.60,ESE,115,0.0,0.0,53,0.00,,---,0.00,VWS V14.01,2013-12-05 21:23:00,
2013-12-05 15:29:00,68.4,51.1,24.60,East,92,3.1,3.1,54,0.00,,---,0.00,VWS V14.01,2013-12-05 21:29:00,
2013-12-05 15:34:00,68.2,50.9,24.60,SE,134,2.7,2.7,54,0.00,,---,0.00,VWS V14.01,2013-12-05 21:34:00,
2013-12-05 15:39:00,68.0,51.2,24.60,SSE,153,0.0,0.0,55,0.00,,---,0.00,VWS V14.01,2013-12-05 21:39:00,
2013-12-05 15:44:00,68.0,51.2,24.60,East,84,2.2,2.2,55,0.00,,---,0.00,VWS V14.01,2013-12-05 21:44:00,
2013-12-05 15:49:00,68.0,52.2,24.60,East,88,3.1,3.1,57,0.00,,---,0.00,VWS V14.01,2013-12-05 21:49:00,
2013-12-05 15:54:00,67.8,52.0,24.60,ENE,74,2.2,2.7,57,0.00,,---,0.00,VWS V14.01,2013-12-05 21:54:00,
2013-12-05 15:59:00,67.6,52.3,24.60,East,85,0.0,4.0,58,0.00,,---,0.00,VWS V14.01,2013-12-05 21:59:00,
2013-12-05 16:04:00,67.5,52.2,24.60,East,85,0.0,2.2,58,0.00,,---,0.00,VWS V14.01,2013-12-05 22:04:00,
2013-12-05 16:09:00,67.3,52.5,24.60,East,98,4.9,4.9,59,0.00,,---,0.00,VWS V14.01,2013-12-05 22:09:00,
2013-12-05 16:14:00,67.1,52.3,24.60,SE,131,4.9,4.9,59,0.00,,---,0.00,VWS V14.01,2013-12-05 22:14:00,
2013-12-05 16:19:00,67.1,52.3,24.60,SSE,157,3.6,3.6,59,0.00,,---,0.00,VWS V14.01,2013-12-05 22:19:00,
2013-12-05 16:24:00,66.9,52.1,24.60,East,80,4.0,4.0,59,0.00,,---,0.00,VWS V14.01,2013-12-05 22:24:00,
2013-12-05 16:29:00,66.9,52.6,24.60,ESE,116,3.1,3.1,60,0.00,,---,0.00,VWS V14.01,2013-12-05 22:29:00,
2013-12-05 16:34:00,66.9,52.6,24.60,ENE,60,2.7,2.7,60,0.00,,---,0.00,VWS V14.01,2013-12-05 22:34:00,
2013-12-05 16:39:00,66.6,53.2,24.60,ESE,120,5.8,5.8,62,0.00,,---,0.00,VWS V14.01,2013-12-05 22:39:00,
2013-12-05 16:45:00,66.4,53.4,24.60,SE,125,2.2,2.2,63,0.00,,---,0.00,VWS V14.01,2013-12-05 22:45:00,
2013-12-05 16:50:00,66.2,53.2,24.60,SE,126,2.7,3.1,63,0.00,,---,0.00,VWS V14.01,2013-12-05 22:50:00,
2013-12-05 16:55:00,66.2,53.7,24.60,ESE,107,3.1,3.1,64,0.00,,---,0.00,VWS V14.01,2013-12-05 22:55:00,
2013-12-05 17:00:00,66.0,53.9,24.60,ESE,111,0.0,4.0,65,0.00,,---,0.00,VWS V14.01,2013-12-05 23:00:00,
2013-12-05 17:05:00,65.8,54.2,24.60,ESE,111,0.0,0.0,66,0.00,,---,0.00,VWS V14.01,2013-12-05 23:05:00,
2013-12-05 17:10:00,65.7,54.4,24.60,NE,45,4.0,4.0,67,0.00,,---,0.00,VWS V14.01,2013-12-05 23:10:00,
2013-12-05 17:15:00,65.5,55.0,24.60,ENE,73,3.1,3.1,69,0.00,,---,0.00,VWS V14.01,2013-12-05 23:15:00,
2013-12-05 17:20:00,65.3,54.9,24.60,ENE,69,3.6,3.6,69,0.00,,---,0.00,VWS V14.01,2013-12-05 23:20:00,
2013-12-05 17:25:00,65.1,55.1,24.60,NE,54,0.0,0.0,70,0.00,,---,0.00,VWS V14.01,2013-12-05 23:25:00,
2013-12-05 17:30:00,64.9,55.3,24.60,SE,139,2.7,2.7,71,0.00,,---,0.00,VWS V14.01,2013-12-05 23:30:00,
2013-12-05 17:35:00,64.9,56.5,24.60,East,95,2.7,2.7,74,0.00,,---,0.00,VWS V14.01,2013-12-05 23:35:00,
2013-12-05 17:40:00,64.8,57.0,24.60,SE,130,3.1,3.1,76,0.00,,---,0.00,VWS V14.01,2013-12-05 23:40:00,
2013-12-05 17:45:00,64.8,57.0,24.60,NE,44,2.7,2.7,76,0.00,,---,0.00,VWS V14.01,2013-12-05 23:45:00,
2013-12-05 17:50:00,64.6,57.9,24.60,East,89,2.7,2.7,79,0.00,,---,0.00,VWS V14.01,2013-12-05 23:50:00,
2013-12-05 17:56:00,64.6,58.3,24.63,East,81,3.6,4.9,80,0.00,,---,0.00,VWS V14.01,2013-12-05 23:56:00,
2013-12-05 18:01:00,64.6,58.6,24.63,East,95,3.1,3.1,81,0.00,,---,0.00,VWS V14.01,2013-12-06 00:01:00,
2013-12-05 18:06:00,64.8,59.1,24.63,ESE,105,2.7,2.7,82,0.00,,---,0.00,VWS V14.01,2013-12-06 00:06:00,
2013-12-05 18:11:00,64.8,59.5,24.63,East,97,3.6,3.6,83,0.00,,---,0.00,VWS V14.01,2013-12-06 00:11:00,
2013-12-05 18:16:00,64.6,59.3,24.63,East,93,4.9,4.9,83,0.00,,---,0.00,VWS V14.01,2013-12-06 00:16:00,
2013-12-05 18:21:00,64.6,59.6,24.63,ESE,119,4.0,4.0,84,0.00,,---,0.00,VWS V14.01,2013-12-06 00:21:00,
2013-12-05 18:26:00,64.6,60.0,24.63,NNE,30,5.4,5.4,85,0.00,,---,0.00,VWS V14.01,2013-12-06 00:26:00,
2013-12-05 18:31:00,64.4,60.1,24.63,NNE,28,3.6,3.6,86,0.00,,---,0.00,VWS V14.01,2013-12-06 00:31:00,
2013-12-05 18:36:00,64.2,60.3,24.63,NE,51,2.7,3.1,87,0.00,,---,0.00,VWS V14.01,2013-12-06 00:36:00,
2013-12-05 18:41:00,64.0,60.1,24.63,ENE,76,2.7,3.6,87,0.00,,---,0.00,VWS V14.01,2013-12-06 00:41:00,
2013-12-05 18:46:00,63.9,59.9,24.63,East,100,3.6,3.6,87,0.00,,---,0.00,VWS V14.01,2013-12-06 00:46:00,
2013-12-05 18:51:00,63.7,60.1,24.63,ESE,107,2.7,2.7,88,0.00,,---,0.00,VWS V14.01,2013-12-06 00:51:00,
2013-12-05 18:56:00,63.7,60.4,24.63,ESE,102,2.2,3.6,89,0.00,,---,0.00,VWS V14.01,2013-12-06 00:56:00,
2013-12-05 19:01:00,63.5,60.2,24.63,NE,40,4.0,4.0,89,0.00,,---,0.00,VWS V14.01,2013-12-06 01:01:00,
2013-12-05 19:07:00,63.5,60.5,24.63,NE,42,2.7,2.7,90,0.00,,---,0.00,VWS V14.01,2013-12-06 01:07:00,
2013-12-05 19:12:00,63.3,60.3,24.63,ESE,111,2.2,3.1,90,0.00,,---,0.00,VWS V14.01,2013-12-06 01:12:00,
2013-12-05 19:17:00,63.1,60.2,24.66,SSE,147,3.1,3.6,90,0.00,,---,0.00,VWS V14.01,2013-12-06 01:17:00,
2013-12-05 19:22:00,63.0,60.3,24.63,NNW,335,2.7,5.4,91,0.00,,---,0.00,VWS V14.01,2013-12-06 01:22:00,
2013-12-05 19:27:00,63.0,60.0,24.63,NNE,31,3.6,3.6,90,0.00,,---,0.00,VWS V14.01,2013-12-06 01:27:00,
2013-12-05 19:32:00,63.0,60.0,24.63,SSW,192,4.0,4.0,90,0.00,,---,0.00,VWS V14.01,2013-12-06 01:32:00,
2013-12-05 19:37:00,62.8,59.5,24.66,East,95,3.1,3.1,89,0.00,,---,0.00,VWS V14.01,2013-12-06 01:37:00,
2013-12-05 19:42:00,62.6,59.3,24.66,NNE,31,2.2,5.4,89,0.00,,---,0.00,VWS V14.01,2013-12-06 01:42:00,
2013-12-05 19:47:00,62.4,59.1,24.66,NNW,342,3.1,3.1,89,0.00,,---,0.00,VWS V14.01,2013-12-06 01:47:00,
2013-12-05 19:52:00,62.4,59.1,24.66,ENE,60,2.7,3.6,89,0.00,,---,0.00,VWS V14.01,2013-12-06 01:52:00,
2013-12-05 19:57:00,62.4,59.1,24.66,East,95,4.0,4.0,89,0.00,,---,0.00,VWS V14.01,2013-12-06 01:57:00,
2013-12-05 20:02:00,62.2,58.7,24.66,ENE,74,5.4,5.4,88,0.00,,---,0.00,VWS V14.01,2013-12-06 02:02:00,
2013-12-05 20:07:00,62.2,58.3,24.66,ENE,58,3.6,3.6,87,0.00,,---,0.00,VWS V14.01,2013-12-06 02:07:00,
2013-12-05 20:13:00,62.2,58.0,24.66,ENE,78,0.0,0.0,86,0.00,,---,0.00,VWS V14.01,2013-12-06 02:13:00,
2013-12-05 20:18:00,62.2,57.7,24.66,East,98,3.1,3.1,85,0.00,,---,0.00,VWS V14.01,2013-12-06 02:18:00,
2013-12-05 20:23:00,62.2,57.3,24.66,ENE,72,4.0,4.0,84,0.00,,---,0.00,VWS V14.01,2013-12-06 02:23:00,
2013-12-05 20:28:00,62.2,57.3,24.66,ESE,115,7.6,7.6,84,0.00,,---,0.00,VWS V14.01,2013-12-06 02:28:00,
2013-12-05 20:33:00,62.2,57.3,24.66,ESE,123,0.0,3.1,84,0.00,,---,0.00,VWS V14.01,2013-12-06 02:33:00,
2013-12-05 20:38:00,62.1,57.2,24.66,ENE,59,3.6,3.6,84,0.00,,---,0.00,VWS V14.01,2013-12-06 02:38:00,
2013-12-05 20:43:00,62.1,57.2,24.66,ENE,74,6.3,6.3,84,0.00,,---,0.00,VWS V14.01,2013-12-06 02:43:00,
2013-12-05 20:48:00,62.1,57.2,24.66,SSE,156,2.2,5.4,84,0.00,,---,0.00,VWS V14.01,2013-12-06 02:48:00,
2013-12-05 20:53:00,62.1,57.2,24.66,ESE,102,0.0,2.7,84,0.00,,---,0.00,VWS V14.01,2013-12-06 02:53:00,
2013-12-05 20:58:00,62.1,57.2,24.66,East,100,4.0,4.0,84,0.00,,---,0.00,VWS V14.01,2013-12-06 02:58:00,
2013-12-05 21:03:00,62.1,56.8,24.66,NE,45,4.9,4.9,83,0.00,,---,0.00,VWS V14.01,2013-12-06 03:03:00,
2013-12-05 21:08:00,62.2,57.0,24.66,East,97,3.1,4.9,83,0.00,,---,0.00,VWS V14.01,2013-12-06 03:08:00,
2013-12-05 21:14:00,62.2,56.7,24.66,ESE,122,3.6,3.6,82,0.00,,---,0.00,VWS V14.01,2013-12-06 03:14:00,
2013-12-05 21:19:00,62.4,56.5,24.66,SE,128,6.3,6.3,81,0.00,,---,0.00,VWS V14.01,2013-12-06 03:19:00,
2013-12-05 21:24:00,62.4,55.8,24.66,SE,135,8.1,8.1,79,0.00,,---,0.00,VWS V14.01,2013-12-06 03:24:00,
2013-12-05 21:29:00,62.6,55.3,24.66,ESE,113,7.6,7.6,77,0.00,,---,0.00,VWS V14.01,2013-12-06 03:29:00,
2013-12-05 21:34:00,62.8,55.1,24.66,ESE,114,8.1,8.1,76,0.00,,---,0.00,VWS V14.01,2013-12-06 03:34:00,
2013-12-05 21:39:00,62.8,54.8,24.66,ESE,107,4.0,4.0,75,0.00,,---,0.00,VWS V14.01,2013-12-06 03:39:00,
2013-12-05 21:44:00,62.6,54.6,24.66,ENE,70,8.3,8.3,75,0.00,,---,0.00,VWS V14.01,2013-12-06 03:44:00,
2013-12-05 21:49:00,62.8,54.4,24.66,ESE,110,9.2,9.2,74,0.00,,---,0.00,VWS V14.01,2013-12-06 03:49:00,
2013-12-05 21:54:00,63.0,54.2,24.66,ENE,69,2.7,5.4,73,0.00,,---,0.00,VWS V14.01,2013-12-06 03:54:00,
2013-12-05 21:59:00,63.0,54.2,24.66,SSE,159,3.1,11.9,73,0.00,,---,0.00,VWS V14.01,2013-12-06 03:59:00,
2013-12-05 22:04:00,62.8,54.0,24.66,ENE,76,6.3,6.3,73,0.00,,---,0.00,VWS V14.01,2013-12-06 04:04:00,
2013-12-05 22:09:00,62.8,54.0,24.66,ESE,120,5.8,5.8,73,0.00,,---,0.00,VWS V14.01,2013-12-06 04:09:00,
2013-12-05 22:14:00,62.8,53.6,24.66,East,100,4.0,4.0,72,0.00,,---,0.00,VWS V14.01,2013-12-06 04:14:00,
2013-12-05 22:19:00,62.8,53.2,24.66,East,101,2.7,2.7,71,0.00,,---,0.00,VWS V14.01,2013-12-06 04:19:00,
2013-12-05 22:25:00,62.8,53.2,24.66,ESE,116,4.0,4.0,71,0.00,,---,0.00,VWS V14.01,2013-12-06 04:25:00,
2013-12-05 22:30:00,62.8,53.2,24.66,East,101,4.9,8.1,71,0.00,,---,0.00,VWS V14.01,2013-12-06 04:30:00,
2013-12-05 22:35:00,63.0,53.0,24.66,NE,45,8.1,8.1,70,0.00,,---,0.00,VWS V14.01,2013-12-06 04:35:00,
2013-12-05 22:40:00,63.1,53.2,24.66,SE,127,3.6,3.6,70,0.00,,---,0.00,VWS V14.01,2013-12-06 04:40:00,
2013-12-05 22:45:00,63.0,53.0,24.66,East,97,3.6,3.6,70,0.00,,---,0.00,VWS V14.01,2013-12-06 04:45:00,
2013-12-05 22:50:00,63.0,53.0,24.66,SE,145,4.0,4.9,70,0.00,,---,0.00,VWS V14.01,2013-12-06 04:50:00,
2013-12-05 22:55:00,63.0,53.0,24.66,ESE,110,6.3,6.3,70,0.00,,---,0.00,VWS V14.01,2013-12-06 04:55:00,
2013-12-05 23:00:00,62.8,52.5,24.66,NE,47,7.6,7.6,69,0.00,,---,0.00,VWS V14.01,2013-12-06 05:00:00,
2013-12-05 23:01:00,62.8,52.5,24.66,NE,47,7.6,7.6,69,0.00,,---,0.00,VWS V14.01,2013-12-06 05:01:00,
2013-12-05 23:02:00,62.8,52.5,24.66,East,81,6.7,7.6,69,0.00,,---,0.00,VWS V14.01,2013-12-06 05:02:00,
2013-12-05 23:04:00,63.0,52.6,24.66,ESE,112,5.8,5.8,69,0.00,,---,0.00,VWS V14.01,2013-12-06 05:04:00,
2013-12-05 23:09:00,63.0,53.0,24.66,NE,56,6.3,6.3,70,0.00,,---,0.00,VWS V14.01,2013-12-06 05:09:00,
2013-12-05 23:14:00,63.0,53.0,24.66,ESE,107,4.9,5.8,70,0.00,,---,0.00,VWS V14.01,2013-12-06 05:14:00,
2013-12-05 23:20:00,62.8,53.6,24.66,SE,124,12.3,12.3,72,0.00,,---,0.00,VWS V14.01,2013-12-06 05:20:00,
2013-12-05 23:25:00,62.8,53.6,24.66,ENE,77,4.5,6.3,72,0.00,,---,0.00,VWS V14.01,2013-12-06 05:25:00,
2013-12-05 23:30:00,62.8,53.6,24.66,SE,143,3.1,3.1,72,0.00,,---,0.00,VWS V14.01,2013-12-06 05:30:00,
2013-12-05 23:35:00,62.8,53.6,24.66,East,89,2.7,4.0,72,0.00,,---,0.00,VWS V14.01,2013-12-06 05:35:00,
2013-12-05 23:40:00,62.8,53.6,24.63,ESE,115,5.4,5.4,72,0.00,,---,0.00,VWS V14.01,2013-12-06 05:40:00,
2013-12-05 23:45:00,62.8,53.6,24.63,ESE,114,8.7,8.7,72,0.00,,---,0.00,VWS V14.01,2013-12-06 05:45:00,
2013-12-05 23:50:00,62.8,53.6,24.63,SE,125,3.1,5.4,72,0.00,,---,0.00,VWS V14.01,2013-12-06 05:50:00,
2013-12-05 23:55:00,62.8,53.6,24.63,NNE,29,3.1,5.8,72,0.00,,---,0.00,VWS V14.01,2013-12-06 05:55:00,